Terminal Aerodrome Forecast
Issued by NWS Corpus Christi, TX

Home | Current Version | Previous Version | Text Only | Print | Product List | Glossary On
Versions: 1 2 3 4 5 6 7 8 9 10 11 12 13
000
FTUS44 KCRP 250533
TAFVCT
TAF
KVCT 250533Z 2506/2606 16007KT P6SM SCT025 SCT250
      TEMPO 2506/2510 BKN025
     FM251000 16003KT P6SM SCT025 SCT250
      TEMPO 2510/2514 6SM BR BKN025
     FM251500 17012KT P6SM VCSH SCT035 BKN250
     FM251900 15014G20KT P6SM FEW040 SCT250
     FM260000 15012KT P6SM SCT050 SCT250=

USA.gov is the U.S. government's official web portal to all federal, state and local government web resources and services.